Arnoldsburg, West Virginia
Current Conditions -  °F | °C
As of 4:54 AM on Saturday 22 Nov 2014 (Local Time) from KCRW Reporting Station
Clear Clear  
Wind Chill: 18°   Ceiling: Unl
Heat Index: 18°   Visibility: 10mi
Dew Point: 15°   Wind: 3mph
Humidity: 88%   Direction: 120°ESE
Pressure: 30.38"   Gusts: NA
Location:  38.79°N, 81.13°W
Report Text: KCRW 220954Z 12003KT 10SM CLR M08/M09 A3038 RMK AO2 SLP299 T10781094
Loading
Personal Weather Stations






























Interactive Weather Map New forecast layout! Learn more

10-Day Weather Forecast

Advertisements
Track Severe Weather on mobile